Time;durP1;ratioP1;P1;durP2;ratioP2;P2;SDS_P1;SDS_P2;PMS_P1;PMS_P2;Temp;Humidity;BMP_temperature;BMP_pressure;BME280_temperature;BME280_humidity;BME280_pressure;Samples;Min_cycle;Max_cycle;Signal;HPM_P1;HPM_P2
2021/09/19 00:00:39;;;;;;;;;;;15.10;99.90;;;;;;4898593;29;19911;-73
2021/09/19 00:03:04;;;;;;;;;;;15.00;99.90;;;;;;4913350;29;20276;-73
2021/09/19 00:05:30;;;;;;;;;;;15.00;99.90;;;;;;4899438;29;20274;-73
2021/09/19 00:07:55;;;;;;;;;;;15.00;99.90;;;;;;4896990;29;20341;-73
2021/09/19 00:10:21;;;;;;;;;;;15.00;99.90;;;;;;4898834;29;19922;-73
2021/09/19 00:12:46;;;;;;;;;;;14.90;99.90;;;;;;4912890;29;19911;-72
2021/09/19 00:15:15;;;;;;;;;;;14.90;99.90;;;;;;4905140;29;19918;-73
2021/09/19 00:17:41;;;;;;;;;;;14.90;99.90;;;;;;4883499;29;19918;-73
2021/09/19 00:20:07;;;;;;;;;;;14.80;99.90;;;;;;4898451;29;19912;-73
2021/09/19 00:22:32;;;;;;;;;;;14.90;99.90;;;;;;4898362;29;19971;-73
2021/09/19 00:24:58;;;;;;;;;;;14.90;99.90;;;;;;4891315;29;20258;-73
2021/09/19 00:27:24;;;;;;;;;;;14.90;99.90;;;;;;4898993;29;19911;-73
2021/09/19 00:29:49;;;;;;;;;;;14.90;99.90;;;;;;4897121;29;19918;-72
2021/09/19 00:32:14;;;;;;;;;;;14.80;99.90;;;;;;4913086;29;20071;-73
2021/09/19 00:34:40;;;;;;;;;;;14.80;99.90;;;;;;4907730;29;19912;-73
2021/09/19 00:37:05;;;;;;;;;;;14.80;99.90;;;;;;4880451;29;19912;-72
2021/09/19 00:39:31;;;;;;;;;;;14.70;99.90;;;;;;4897376;29;19912;-72
2021/09/19 00:41:57;;;;;;;;;;;14.70;99.90;;;;;;4898524;29;19911;-73
2021/09/19 00:44:26;;;;;;;;;;;14.70;99.90;;;;;;4897927;29;19970;-72
2021/09/19 00:46:52;;;;;;;;;;;14.70;99.90;;;;;;4898046;29;19911;-72
2021/09/19 00:49:18;;;;;;;;;;;14.70;99.90;;;;;;4912370;29;20352;-72
2021/09/19 00:51:43;;;;;;;;;;;14.70;99.90;;;;;;4912213;29;19916;-72
2021/09/19 00:54:10;;;;;;;;;;;14.70;99.90;;;;;;4896994;29;19907;-72
2021/09/19 00:56:35;;;;;;;;;;;14.60;99.90;;;;;;4887463;29;19911;-71
2021/09/19 00:59:01;;;;;;;;;;;14.60;99.90;;;;;;4897958;29;19960;-71
2021/09/19 01:01:27;;;;;;;;;;;14.60;99.90;;;;;;4897873;29;19911;-71
2021/09/19 01:03:53;;;;;;;;;;;14.60;99.90;;;;;;4898158;29;19918;-72
2021/09/19 01:06:18;;;;;;;;;;;14.60;99.90;;;;;;4891856;29;19912;-72
2021/09/19 01:08:44;;;;;;;;;;;14.60;99.90;;;;;;4897676;29;20293;-72
2021/09/19 01:11:10;;;;;;;;;;;14.60;99.90;;;;;;4897801;29;20361;-71
2021/09/19 01:13:36;;;;;;;;;;;14.60;99.90;;;;;;4897964;29;19919;-71
2021/09/19 01:16:03;;;;;;;;;;;14.60;99.90;;;;;;4894373;29;19994;-72
2021/09/19 01:18:29;;;;;;;;;;;14.50;99.90;;;;;;4901866;29;19911;-72
2021/09/19 01:20:54;;;;;;;;;;;14.50;99.90;;;;;;4900016;29;19922;-72
2021/09/19 01:23:19;;;;;;;;;;;14.50;99.90;;;;;;4901289;29;19998;-71
2021/09/19 01:25:48;;;;;;;;;;;14.50;99.90;;;;;;4901720;29;19926;-72
2021/09/19 01:28:14;;;;;;;;;;;14.50;99.90;;;;;;4901612;29;19949;-72
2021/09/19 01:30:39;;;;;;;;;;;14.50;99.90;;;;;;4901497;29;19918;-72
2021/09/19 01:33:05;;;;;;;;;;;14.50;99.90;;;;;;4893001;29;19977;-72
2021/09/19 01:35:31;;;;;;;;;;;14.50;99.90;;;;;;4885864;29;19922;-71
2021/09/19 01:37:57;;;;;;;;;;;14.50;99.90;;;;;;4900259;29;19919;-72
2021/09/19 01:40:23;;;;;;;;;;;14.50;99.90;;;;;;4901475;29;19911;-71
2021/09/19 01:42:49;;;;;;;;;;;14.50;99.90;;;;;;4899592;29;20376;-72
2021/09/19 01:45:14;;;;;;;;;;;14.50;99.90;;;;;;4900945;29;19957;-71
2021/09/19 01:47:40;;;;;;;;;;;14.40;99.90;;;;;;4900323;29;19947;-72
2021/09/19 01:50:06;;;;;;;;;;;14.40;99.90;;;;;;4899541;29;19911;-72
2021/09/19 01:52:32;;;;;;;;;;;14.40;99.90;;;;;;4897702;29;19955;-72
2021/09/19 01:54:58;;;;;;;;;;;14.40;99.90;;;;;;4886471;29;19919;-72
2021/09/19 01:57:23;;;;;;;;;;;14.40;99.90;;;;;;4900030;29;19922;-72
2021/09/19 01:59:50;;;;;;;;;;;14.40;99.90;;;;;;4901397;29;20082;-72
2021/09/19 02:02:17;;;;;;;;;;;14.40;99.90;;;;;;4900922;29;19917;-72
2021/09/19 02:04:42;;;;;;;;;;;14.40;99.90;;;;;;4901373;29;19911;-72
2021/09/19 02:07:08;;;;;;;;;;;14.40;99.90;;;;;;4901079;29;20062;-72
2021/09/19 02:09:33;;;;;;;;;;;14.30;99.90;;;;;;4900682;29;19919;-72
2021/09/19 02:11:59;;;;;;;;;;;14.30;99.90;;;;;;4900997;29;19912;-72
2021/09/19 02:14:24;;;;;;;;;;;14.40;99.90;;;;;;4891512;29;19907;-72
2021/09/19 02:16:50;;;;;;;;;;;14.40;99.90;;;;;;4899518;29;19963;-72
2021/09/19 02:19:15;;;;;;;;;;;14.40;99.90;;;;;;4899997;29;19980;-72
2021/09/19 02:21:41;;;;;;;;;;;14.40;99.90;;;;;;4900983;29;19930;-72
2021/09/19 02:24:06;;;;;;;;;;;14.40;99.90;;;;;;4901094;29;19924;-72
2021/09/19 02:26:32;;;;;;;;;;;14.40;99.90;;;;;;4899911;29;20002;-72
2021/09/19 02:28:57;;;;;;;;;;;14.40;99.90;;;;;;4897246;29;19954;-72
2021/09/19 02:31:23;;;;;;;;;;;14.50;99.90;;;;;;4900781;29;19911;-72
2021/09/19 02:33:48;;;;;;;;;;;14.50;99.90;;;;;;4884691;29;19914;-72
2021/09/19 02:36:14;;;;;;;;;;;14.40;99.90;;;;;;4896445;29;19912;-72
2021/09/19 02:38:39;;;;;;;;;;;14.40;99.90;;;;;;4899181;29;20002;-72
2021/09/19 02:41:05;;;;;;;;;;;14.40;99.90;;;;;;4900424;29;19919;-72
2021/09/19 02:43:30;;;;;;;;;;;14.40;99.90;;;;;;4886731;29;19908;-72
2021/09/19 02:45:56;;;;;;;;;;;14.40;99.90;;;;;;4881959;29;19972;-72
2021/09/19 02:48:21;;;;;;;;;;;14.40;99.90;;;;;;4887889;29;19919;-73
2021/09/19 02:50:47;;;;;;;;;;;14.40;99.90;;;;;;4897828;29;19911;-73
2021/09/19 02:53:12;;;;;;;;;;;14.40;99.90;;;;;;4899153;29;19907;-72
2021/09/19 02:55:38;;;;;;;;;;;14.40;99.90;;;;;;4899248;29;19997;-72
2021/09/19 02:58:03;;;;;;;;;;;14.30;99.90;;;;;;4900173;29;20395;-73
2021/09/19 03:00:29;;;;;;;;;;;14.30;99.90;;;;;;4897981;29;19911;-73
2021/09/19 03:02:55;;;;;;;;;;;14.30;99.90;;;;;;4893664;29;19921;-73
2021/09/19 03:05:20;;;;;;;;;;;14.30;99.90;;;;;;4914350;29;19912;-73
2021/09/19 03:07:46;;;;;;;;;;;14.30;99.90;;;;;;4900096;29;19912;-73
2021/09/19 03:10:12;;;;;;;;;;;14.30;99.90;;;;;;4899813;29;19915;-72
2021/09/19 03:12:37;;;;;;;;;;;14.20;99.90;;;;;;4894724;29;19952;-72
2021/09/19 03:15:04;;;;;;;;;;;14.20;99.90;;;;;;4900162;29;20266;-72
2021/09/19 03:17:29;;;;;;;;;;;14.30;99.90;;;;;;4899707;29;19911;-73
2021/09/19 03:19:55;;;;;;;;;;;14.20;99.90;;;;;;4899367;29;19918;-72
2021/09/19 03:22:20;;;;;;;;;;;14.20;99.90;;;;;;4913752;29;19918;-73
2021/09/19 03:24:46;;;;;;;;;;;14.20;99.90;;;;;;4899003;29;20353;-73
2021/09/19 03:27:11;;;;;;;;;;;14.20;99.90;;;;;;4900631;29;19934;-73
2021/09/19 03:29:37;;;;;;;;;;;14.20;99.90;;;;;;4899430;29;19911;-73
2021/09/19 03:32:03;;;;;;;;;;;14.20;99.90;;;;;;4901077;29;19970;-73
2021/09/19 03:34:28;;;;;;;;;;;14.20;99.90;;;;;;4891838;29;19911;-73
2021/09/19 03:36:54;;;;;;;;;;;14.20;99.90;;;;;;4900857;29;20353;-73
2021/09/19 03:39:19;;;;;;;;;;;14.20;99.90;;;;;;4902769;29;19912;-73
2021/09/19 03:41:45;;;;;;;;;;;14.20;99.90;;;;;;4917450;29;19944;-73
2021/09/19 03:44:10;;;;;;;;;;;14.20;99.90;;;;;;4916959;29;19923;-73
2021/09/19 03:46:39;;;;;;;;;;;14.20;99.90;;;;;;4920058;29;19930;-73
2021/09/19 03:49:05;;;;;;;;;;;14.20;99.90;;;;;;4919524;29;19963;-73
2021/09/19 03:51:30;;;;;;;;;;;14.10;99.90;;;;;;4919087;29;19903;-73
2021/09/19 03:53:56;;;;;;;;;;;14.10;99.90;;;;;;4919454;29;19904;-73
2021/09/19 03:56:22;;;;;;;;;;;14.10;99.90;;;;;;4915958;29;19900;-73
2021/09/19 03:58:48;;;;;;;;;;;14.00;99.90;;;;;;4900871;29;19908;-73
2021/09/19 04:01:14;;;;;;;;;;;14.10;99.90;;;;;;4919650;29;19934;-73
2021/09/19 04:03:40;;;;;;;;;;;14.00;99.90;;;;;;4919725;29;19911;-73
2021/09/19 04:06:05;;;;;;;;;;;14.00;99.90;;;;;;4919131;29;19919;-72
2021/09/19 04:08:31;;;;;;;;;;;14.00;99.90;;;;;;4916942;29;19912;-73
2021/09/19 04:10:57;;;;;;;;;;;14.00;99.90;;;;;;4909034;29;20075;-73
2021/09/19 04:13:22;;;;;;;;;;;14.00;99.90;;;;;;4903394;29;19907;-73
2021/09/19 04:15:48;;;;;;;;;;;14.10;99.90;;;;;;4900861;29;19912;-73
2021/09/19 04:18:14;;;;;;;;;;;14.00;99.90;;;;;;4901902;29;19918;-72
2021/09/19 04:20:40;;;;;;;;;;;14.00;99.90;;;;;;4901525;29;19912;-72
2021/09/19 04:23:06;;;;;;;;;;;13.90;99.90;;;;;;4900363;29;19955;-73
2021/09/19 04:25:31;;;;;;;;;;;13.90;99.90;;;;;;4899087;29;20395;-72
2021/09/19 04:27:57;;;;;;;;;;;14.00;99.90;;;;;;4900139;29;19914;-72
2021/09/19 04:30:22;;;;;;;;;;;14.00;99.90;;;;;;4899197;29;19933;-73
2021/09/19 04:32:48;;;;;;;;;;;14.00;99.90;;;;;;4913854;29;19914;-73
2021/09/19 04:35:13;;;;;;;;;;;14.00;99.90;;;;;;4897607;29;19967;-73
2021/09/19 04:37:39;;;;;;;;;;;13.90;99.90;;;;;;4895896;29;19934;-72
2021/09/19 04:40:05;;;;;;;;;;;13.90;99.90;;;;;;4888142;29;19956;-72
2021/09/19 04:42:30;;;;;;;;;;;14.00;99.90;;;;;;4896888;29;19907;-73
2021/09/19 04:44:56;;;;;;;;;;;13.90;99.90;;;;;;4887390;29;19922;-73
2021/09/19 04:47:21;;;;;;;;;;;13.90;99.90;;;;;;4913056;29;20006;-72
2021/09/19 04:49:47;;;;;;;;;;;13.90;99.90;;;;;;4891218;29;19918;-73
2021/09/19 04:52:13;;;;;;;;;;;13.90;99.90;;;;;;4882058;29;19938;-73
2021/09/19 04:54:38;;;;;;;;;;;13.90;99.90;;;;;;4885089;29;19959;-73
2021/09/19 04:57:04;;;;;;;;;;;13.90;99.90;;;;;;4898497;29;20337;-72
2021/09/19 04:59:29;;;;;;;;;;;13.80;99.90;;;;;;4899092;29;19908;-72
2021/09/19 05:01:55;;;;;;;;;;;13.90;99.90;;;;;;4892696;29;20002;-73
2021/09/19 05:04:20;;;;;;;;;;;13.90;99.90;;;;;;4898208;29;19915;-72
2021/09/19 05:06:46;;;;;;;;;;;13.90;99.90;;;;;;4898579;29;19998;-73
2021/09/19 05:09:11;;;;;;;;;;;13.90;99.90;;;;;;4896574;29;19922;-73
2021/09/19 05:11:37;;;;;;;;;;;13.80;99.90;;;;;;4898331;29;20271;-73
2021/09/19 05:14:02;;;;;;;;;;;13.90;99.90;;;;;;4898070;29;19923;-73
2021/09/19 05:16:28;;;;;;;;;;;13.80;99.90;;;;;;4891807;29;19976;-73
2021/09/19 05:18:57;;;;;;;;;;;13.90;99.90;;;;;;4883155;29;20377;-73
2021/09/19 05:21:22;;;;;;;;;;;13.90;99.90;;;;;;4879601;29;19908;-73
2021/09/19 05:23:48;;;;;;;;;;;13.90;99.90;;;;;;4905859;29;19919;-73
2021/09/19 05:26:13;;;;;;;;;;;13.80;99.90;;;;;;4894990;29;19988;-73
2021/09/19 05:28:39;;;;;;;;;;;13.90;99.90;;;;;;4898179;29;20285;-73
2021/09/19 05:31:04;;;;;;;;;;;13.90;99.90;;;;;;4897636;29;19912;-73
2021/09/19 05:33:30;;;;;;;;;;;13.90;99.90;;;;;;4898236;29;19912;-73
2021/09/19 05:35:55;;;;;;;;;;;13.90;99.90;;;;;;4895326;29;19918;-73
2021/09/19 05:38:21;;;;;;;;;;;13.90;99.90;;;;;;4897652;29;19911;-72
2021/09/19 05:40:46;;;;;;;;;;;13.90;99.90;;;;;;4897588;29;20325;-72
2021/09/19 05:43:12;;;;;;;;;;;13.90;99.90;;;;;;4896944;29;19911;-72
2021/09/19 05:45:37;;;;;;;;;;;13.90;99.90;;;;;;4897540;29;19974;-72
2021/09/19 05:48:03;;;;;;;;;;;14.00;99.90;;;;;;4897451;29;19923;-72
2021/09/19 05:50:29;;;;;;;;;;;14.00;99.90;;;;;;4896160;29;19965;-72
2021/09/19 05:52:54;;;;;;;;;;;14.00;99.90;;;;;;4897729;29;20330;-72
2021/09/19 05:55:20;;;;;;;;;;;14.10;99.90;;;;;;4897357;29;19911;-75
2021/09/19 05:57:45;;;;;;;;;;;14.10;99.90;;;;;;4897587;29;19919;-73
2021/09/19 06:00:11;;;;;;;;;;;14.10;99.90;;;;;;4898186;29;19918;-73
2021/09/19 06:02:37;;;;;;;;;;;14.10;99.90;;;;;;4901260;29;19908;-73
2021/09/19 06:05:03;;;;;;;;;;;14.10;99.90;;;;;;4899442;29;19950;-72
2021/09/19 06:07:28;;;;;;;;;;;14.30;99.90;;;;;;4900750;29;19994;-72
2021/09/19 06:09:54;;;;;;;;;;;14.40;99.90;;;;;;4900673;29;20006;-72
2021/09/19 06:12:19;;;;;;;;;;;14.40;99.90;;;;;;4900858;29;19918;-72
2021/09/19 06:14:45;;;;;;;;;;;14.40;99.90;;;;;;4900848;29;19914;-74
2021/09/19 06:17:10;;;;;;;;;;;14.50;99.90;;;;;;4900627;29;19911;-72
2021/09/19 06:19:36;;;;;;;;;;;14.50;99.90;;;;;;4915461;29;19963;-73
2021/09/19 06:22:02;;;;;;;;;;;14.50;99.90;;;;;;4901029;29;19912;-73
2021/09/19 06:24:29;;;;;;;;;;;14.50;99.90;;;;;;4900168;29;19971;-72
2021/09/19 06:26:55;;;;;;;;;;;14.60;99.90;;;;;;4891390;29;19912;-73
2021/09/19 06:29:20;;;;;;;;;;;14.60;99.90;;;;;;4885438;29;19954;-73
2021/09/19 06:31:46;;;;;;;;;;;14.70;99.90;;;;;;4915328;29;19934;-72
2021/09/19 06:34:11;;;;;;;;;;;14.70;99.90;;;;;;4900064;29;19955;-73
2021/09/19 06:36:37;;;;;;;;;;;14.60;99.90;;;;;;4898220;29;20006;-73
2021/09/19 06:39:02;;;;;;;;;;;14.60;99.90;;;;;;4900666;29;19915;-72
2021/09/19 06:41:28;;;;;;;;;;;14.60;99.90;;;;;;4914841;29;19907;-72
2021/09/19 06:43:53;;;;;;;;;;;14.60;99.90;;;;;;4900235;29;19918;-72
2021/09/19 06:46:19;;;;;;;;;;;14.70;99.90;;;;;;4908691;29;19916;-73
2021/09/19 06:48:44;;;;;;;;;;;14.80;99.90;;;;;;4891546;29;20022;-73
2021/09/19 06:51:10;;;;;;;;;;;14.70;99.90;;;;;;4914556;29;19914;-73
2021/09/19 06:53:37;;;;;;;;;;;14.80;99.90;;;;;;4898763;29;19912;-73
2021/09/19 06:56:06;;;;;;;;;;;14.80;99.90;;;;;;4893484;29;20447;-74
2021/09/19 06:58:31;;;;;;;;;;;14.90;99.90;;;;;;4892852;29;19912;-73
2021/09/19 07:00:57;;;;;;;;;;;14.90;99.90;;;;;;4898614;29;19912;-73
2021/09/19 07:03:23;;;;;;;;;;;14.90;99.90;;;;;;4896266;29;19912;-73
2021/09/19 07:05:48;;;;;;;;;;;14.90;99.90;;;;;;4913840;29;19915;-72
2021/09/19 07:08:14;;;;;;;;;;;15.00;99.90;;;;;;4899563;29;20284;-72
2021/09/19 07:10:39;;;;;;;;;;;15.20;99.90;;;;;;4899564;29;19965;-72
2021/09/19 07:13:05;;;;;;;;;;;15.30;99.90;;;;;;4913023;29;20262;-72
2021/09/19 07:15:30;;;;;;;;;;;15.50;99.90;;;;;;4899639;29;19916;-72
2021/09/19 07:17:56;;;;;;;;;;;15.70;99.90;;;;;;4899552;29;20391;-72
2021/09/19 07:20:21;;;;;;;;;;;15.70;99.90;;;;;;4899824;29;19971;-72
2021/09/19 07:22:47;;;;;;;;;;;15.60;99.90;;;;;;4899913;29;20001;-73
2021/09/19 07:25:13;;;;;;;;;;;15.70;99.90;;;;;;4899417;29;19923;-72
2021/09/19 07:27:39;;;;;;;;;;;15.70;99.90;;;;;;4899655;29;19994;-72
2021/09/19 07:30:05;;;;;;;;;;;15.90;99.90;;;;;;4899771;29;20336;-73
2021/09/19 07:32:31;;;;;;;;;;;16.00;99.90;;;;;;4898325;29;19929;-72
2021/09/19 07:34:57;;;;;;;;;;;16.10;99.90;;;;;;4899049;29;19911;-72
2021/09/19 07:37:23;;;;;;;;;;;16.10;99.90;;;;;;4899069;29;20340;-72
2021/09/19 07:39:48;;;;;;;;;;;16.20;99.90;;;;;;4899465;29;20301;-72
2021/09/19 07:42:14;;;;;;;;;;;16.40;99.90;;;;;;4899237;29;19914;-72
2021/09/19 07:44:40;;;;;;;;;;;16.50;99.90;;;;;;4899295;29;20380;-73
2021/09/19 07:47:06;;;;;;;;;;;16.50;99.90;;;;;;4898069;29;19994;-72
2021/09/19 07:49:36;;;;;;;;;;;16.50;99.90;;;;;;4898937;29;19967;-72
2021/09/19 07:52:02;;;;;;;;;;;16.50;99.90;;;;;;4899223;29;19916;-72
2021/09/19 07:54:27;;;;;;;;;;;16.70;99.90;;;;;;4899031;29;19918;-73
2021/09/19 07:56:53;;;;;;;;;;;16.90;99.90;;;;;;4913313;29;20284;-72
2021/09/19 07:59:18;;;;;;;;;;;16.90;99.90;;;;;;4913651;29;20292;-73
2021/09/19 08:01:44;;;;;;;;;;;17.00;99.90;;;;;;4898658;29;19911;-73
2021/09/19 08:04:10;;;;;;;;;;;17.10;99.90;;;;;;4898614;29;19911;-73
2021/09/19 08:06:35;;;;;;;;;;;17.20;99.90;;;;;;4899001;29;20474;-73
2021/09/19 08:09:01;;;;;;;;;;;17.30;99.90;;;;;;4898647;29;19915;-73
2021/09/19 08:11:26;;;;;;;;;;;17.40;99.90;;;;;;4895905;29;20360;-73
2021/09/19 08:13:56;;;;;;;;;;;17.50;99.90;;;;;;4898576;29;19911;-71
2021/09/19 08:16:21;;;;;;;;;;;17.50;99.90;;;;;;4899376;29;20005;-72
2021/09/19 08:18:48;;;;;;;;;;;17.50;99.90;;;;;;4893807;29;19950;-84
2021/09/19 08:21:14;;;;;;;;;;;17.50;99.90;;;;;;4898209;29;19957;-72
2021/09/19 08:23:39;;;;;;;;;;;17.60;99.90;;;;;;4896115;29;19947;-72
2021/09/19 08:26:05;;;;;;;;;;;17.60;99.90;;;;;;4897311;29;19926;-73
2021/09/19 08:28:30;;;;;;;;;;;17.70;99.90;;;;;;4910775;29;20420;-73
2021/09/19 08:30:56;;;;;;;;;;;17.80;99.90;;;;;;4913378;29;20376;-72
2021/09/19 08:33:26;;;;;;;;;;;17.80;99.90;;;;;;4898692;29;19954;-73
2021/09/19 08:35:53;;;;;;;;;;;18.00;99.90;;;;;;4889109;29;19911;-73
2021/09/19 08:38:19;;;;;;;;;;;18.00;99.90;;;;;;4912772;29;20380;-74
2021/09/19 08:40:44;;;;;;;;;;;18.10;99.90;;;;;;4897982;29;19912;-73
2021/09/19 08:43:10;;;;;;;;;;;18.10;99.90;;;;;;4899495;29;20284;-73
2021/09/19 08:45:35;;;;;;;;;;;18.20;99.90;;;;;;4898242;29;19965;-74
2021/09/19 08:48:01;;;;;;;;;;;18.30;99.90;;;;;;4897938;29;20007;-73
2021/09/19 08:50:26;;;;;;;;;;;18.40;99.90;;;;;;4898225;29;19911;-73
2021/09/19 08:52:52;;;;;;;;;;;18.50;99.90;;;;;;4897018;29;19911;-72
2021/09/19 08:55:17;;;;;;;;;;;18.60;99.90;;;;;;4898193;29;19934;-73
2021/09/19 08:57:43;;;;;;;;;;;18.70;99.90;;;;;;4898376;29;19923;-73
2021/09/19 09:00:13;;;;;;;;;;;18.80;99.90;;;;;;4897921;29;19911;-73
2021/09/19 09:02:47;;;;;;;;;;;18.90;99.90;;;;;;4898172;29;19915;-73
2021/09/19 09:05:18;;;;;;;;;;;18.90;99.90;;;;;;4897211;29;20002;-74
2021/09/19 09:07:47;;;;;;;;;;;18.90;99.90;;;;;;4898092;29;19915;-73
2021/09/19 09:10:12;;;;;;;;;;;19.10;99.90;;;;;;4898050;29;20369;-72
2021/09/19 09:12:37;;;;;;;;;;;19.10;99.90;;;;;;4898243;29;19950;-72
2021/09/19 09:15:05;;;;;;;;;;;19.20;99.90;;;;;;4898421;29;19907;-72
2021/09/19 09:17:31;;;;;;;;;;;19.20;99.90;;;;;;4896935;29;19962;-73
2021/09/19 09:19:58;;;;;;;;;;;19.30;99.90;;;;;;4898402;29;19912;-73
2021/09/19 09:22:25;;;;;;;;;;;19.50;99.90;;;;;;4896886;29;19911;-72
2021/09/19 09:25:02;;;;;;;;;;;19.50;99.90;;;;;;4894589;29;20300;-72
2021/09/19 09:27:28;;;;;;;;;;;19.70;99.90;;;;;;4895502;29;19955;-73
2021/09/19 09:30:05;;;;;;;;;;;19.70;99.90;;;;;;4913405;29;20288;-73
2021/09/19 09:32:31;;;;;;;;;;;19.80;99.90;;;;;;4897255;29;19950;-73
2021/09/19 09:35:09;;;;;;;;;;;19.80;99.90;;;;;;4897775;29;19919;-72
2021/09/19 09:37:38;;;;;;;;;;;19.90;99.90;;;;;;4900912;29;19911;-72
2021/09/19 09:40:17;;;;;;;;;;;19.80;99.90;;;;;;4914244;29;19949;-74
2021/09/19 09:43:02;;;;;;;;;;;19.90;99.90;;;;;;4899860;29;19916;-73
2021/09/19 09:45:27;;;;;;;;;;;19.80;99.90;;;;;;4901618;29;19916;-73
2021/09/19 09:47:53;;;;;;;;;;;19.70;99.90;;;;;;4916780;29;19922;-72
2021/09/19 09:50:24;;;;;;;;;;;19.60;99.90;;;;;;4900471;29;20287;-72
2021/09/19 09:52:50;;;;;;;;;;;19.70;99.90;;;;;;4901065;29;19912;-71
2021/09/19 09:55:16;;;;;;;;;;;19.90;99.90;;;;;;4900698;29;19911;-72
2021/09/19 09:58:00;;;;;;;;;;;20.20;99.90;;;;;;4899971;29;19918;-74
2021/09/19 10:00:25;;;;;;;;;;;20.40;99.90;;;;;;4899148;29;19974;-73
2021/09/19 10:02:51;;;;;;;;;;;20.70;99.90;;;;;;4899330;29;20284;-73
2021/09/19 10:05:18;;;;;;;;;;;21.00;99.90;;;;;;4915470;29;19919;-72
2021/09/19 10:07:44;;;;;;;;;;;21.20;99.90;;;;;;4915807;29;19915;-73
2021/09/19 10:10:12;;;;;;;;;;;21.40;99.90;;;;;;4915082;29;19915;-74
2021/09/19 10:12:38;;;;;;;;;;;21.50;99.90;;;;;;4899345;29;20269;-73
2021/09/19 10:15:05;;;;;;;;;;;21.50;99.90;;;;;;4913694;29;19958;-73
2021/09/19 10:17:31;;;;;;;;;;;21.40;99.90;;;;;;4897108;29;20387;-73
2021/09/19 10:19:57;;;;;;;;;;;21.60;99.90;;;;;;4899090;29;19998;-74
2021/09/19 10:22:26;;;;;;;;;;;21.70;99.90;;;;;;4899867;29;20013;-73
2021/09/19 10:24:52;;;;;;;;;;;21.80;99.90;;;;;;4899970;29;20357;-74
2021/09/19 10:27:26;;;;;;;;;;;21.60;99.90;;;;;;4899263;29;20002;-73
2021/09/19 10:29:59;;;;;;;;;;;21.50;99.90;;;;;;4900774;29;20002;-73
2021/09/19 10:32:31;;;;;;;;;;;21.40;99.90;;;;;;4912119;29;19920;-73
2021/09/19 10:34:57;;;;;;;;;;;21.40;99.90;;;;;;4900675;29;19912;-73
2021/09/19 10:37:41;;;;;;;;;;;21.60;99.90;;;;;;4901226;29;20014;-73
2021/09/19 10:40:07;;;;;;;;;;;21.50;99.90;;;;;;4899919;29;19943;-73
2021/09/19 10:42:38;;;;;;;;;;;21.20;99.90;;;;;;4900770;29;19988;-72
2021/09/19 10:45:10;;;;;;;;;;;21.00;99.90;;;;;;4899672;29;19918;-71
2021/09/19 10:47:41;;;;;;;;;;;20.80;99.90;;;;;;4900232;29;19911;-71
2021/09/19 10:50:21;;;;;;;;;;;20.80;99.90;;;;;;4900488;29;19967;-73
2021/09/19 10:52:47;;;;;;;;;;;21.00;99.90;;;;;;4900375;29;19934;-72
2021/09/19 10:55:19;;;;;;;;;;;21.10;99.90;;;;;;4900417;29;19966;-72
2021/09/19 10:58:02;;;;;;;;;;;21.20;99.90;;;;;;4900218;29;20428;-73
2021/09/19 11:00:28;;;;;;;;;;;21.40;99.90;;;;;;4899523;29;19916;-73
2021/09/19 11:03:16;;;;;;;;;;;21.60;99.90;;;;;;4900458;29;19907;-73
2021/09/19 11:05:49;;;;;;;;;;;21.70;99.90;;;;;;4900267;29;19911;-73
2021/09/19 11:08:16;;;;;;;;;;;21.70;99.90;;;;;;4914525;29;19918;-72
2021/09/19 11:10:44;;;;;;;;;;;21.70;99.90;;;;;;4900077;29;19915;-73
2021/09/19 11:13:19;;;;;;;;;;;21.80;99.90;;;;;;4899019;29;19923;-72
2021/09/19 11:16:05;;;;;;;;;;;22.00;99.90;;;;;;4899576;29;19968;-73
2021/09/19 11:18:36;;;;;;;;;;;22.00;99.90;;;;;;4900046;29;19912;-72
2021/09/19 11:21:11;;;;;;;;;;;22.00;99.90;;;;;;4900041;29;19912;-72
2021/09/19 11:23:39;;;;;;;;;;;22.00;99.90;;;;;;4914207;29;19933;-73
2021/09/19 11:26:05;;;;;;;;;;;21.90;99.90;;;;;;4914068;29;19967;-73
2021/09/19 11:28:33;;;;;;;;;;;21.80;99.90;;;;;;4900094;29;19907;-73
2021/09/19 11:30:59;;;;;;;;;;;21.80;99.90;;;;;;4899659;29;20309;-72
2021/09/19 11:33:25;;;;;;;;;;;21.80;99.90;;;;;;4899940;29;19998;-73
2021/09/19 11:35:50;;;;;;;;;;;21.90;99.90;;;;;;4899590;29;19918;-72
2021/09/19 11:38:20;;;;;;;;;;;22.00;99.90;;;;;;4899103;29;19911;-73
2021/09/19 11:40:45;;;;;;;;;;;22.00;99.90;;;;;;4900120;29;19911;-72
2021/09/19 11:43:11;;;;;;;;;;;21.90;99.90;;;;;;4899702;29;19966;-72
2021/09/19 11:45:38;;;;;;;;;;;21.70;99.90;;;;;;4913555;29;20332;-72
2021/09/19 11:48:07;;;;;;;;;;;21.60;99.90;;;;;;4896075;29;19928;-72
2021/09/19 11:50:37;;;;;;;;;;;21.50;99.90;;;;;;4898825;29;19912;-72
2021/09/19 11:53:06;;;;;;;;;;;21.50;99.90;;;;;;4898135;29;20383;-74
2021/09/19 11:55:31;;;;;;;;;;;21.80;99.90;;;;;;4899264;29;20379;-74
2021/09/19 11:57:58;;;;;;;;;;;22.10;99.90;;;;;;4899010;29;19911;-74
2021/09/19 12:00:28;;;;;;;;;;;22.20;99.90;;;;;;4897348;29;20257;-73
2021/09/19 12:02:54;;;;;;;;;;;22.30;99.90;;;;;;4899156;29;19911;-73
2021/09/19 12:05:23;;;;;;;;;;;22.20;99.90;;;;;;4897841;29;19916;-74
2021/09/19 12:07:48;;;;;;;;;;;22.20;99.90;;;;;;4897952;29;19919;-73
2021/09/19 12:10:13;;;;;;;;;;;22.20;99.90;;;;;;4898353;29;20007;-74
2021/09/19 12:12:39;;;;;;;;;;;22.30;99.90;;;;;;4899324;29;19954;-73
2021/09/19 12:15:05;;;;;;;;;;;22.30;99.90;;;;;;4898586;29;20013;-74
2021/09/19 12:17:30;;;;;;;;;;;22.50;99.90;;;;;;4913652;29;19911;-74
2021/09/19 12:19:58;;;;;;;;;;;22.60;99.90;;;;;;4898712;29;19912;-74
2021/09/19 12:22:23;;;;;;;;;;;22.80;99.90;;;;;;4899195;29;20376;-74
2021/09/19 12:24:53;;;;;;;;;;;22.90;99.90;;;;;;4898288;29;19926;-73
2021/09/19 12:27:20;;;;;;;;;;;22.90;99.90;;;;;;4899106;29;19919;-73
2021/09/19 12:29:57;;;;;;;;;;;23.00;99.90;;;;;;4896615;29;20002;-73
2021/09/19 12:32:37;;;;;;;;;;;22.90;99.90;;;;;;4888005;29;19969;-73
2021/09/19 12:35:08;;;;;;;;;;;23.00;99.90;;;;;;4898858;29;19915;-74
2021/09/19 12:37:35;;;;;;;;;;;23.00;99.90;;;;;;4899008;29;19916;-74
2021/09/19 12:40:05;;;;;;;;;;;23.00;99.90;;;;;;4897134;29;20381;-74
2021/09/19 12:42:30;;;;;;;;;;;23.00;99.90;;;;;;4898793;29;19955;-74
2021/09/19 12:44:56;;;;;;;;;;;23.10;99.90;;;;;;4897370;29;19965;-73
2021/09/19 12:47:22;;;;;;;;;;;23.20;99.90;;;;;;4894771;29;19920;-74
2021/09/19 12:49:49;;;;;;;;;;;23.20;99.90;;;;;;4894065;29;19935;-74
2021/09/19 12:52:16;;;;;;;;;;;23.20;99.90;;;;;;4899099;29;19911;-73
2021/09/19 12:54:46;;;;;;;;;;;23.50;99.90;;;;;;4896789;29;19918;-73
2021/09/19 12:57:12;;;;;;;;;;;23.60;99.90;;;;;;4892982;29;19911;-74
2021/09/19 12:59:40;;;;;;;;;;;23.60;99.90;;;;;;4918829;29;20395;-73
2021/09/19 13:02:05;;;;;;;;;;;23.60;99.90;;;;;;4897461;29;19998;-74
2021/09/19 13:04:31;;;;;;;;;;;23.60;99.90;;;;;;4898001;29;20365;-74
2021/09/19 13:06:56;;;;;;;;;;;23.50;99.90;;;;;;4898864;29;19912;-74
2021/09/19 13:09:22;;;;;;;;;;;23.50;99.90;;;;;;4893013;29;19962;-74
2021/09/19 13:11:47;;;;;;;;;;;23.40;99.90;;;;;;4901868;29;20265;-74
2021/09/19 13:14:13;;;;;;;;;;;23.50;99.90;;;;;;4899698;29;19915;-74
2021/09/19 13:16:41;;;;;;;;;;;23.70;99.90;;;;;;4900929;29;20288;-73
2021/09/19 13:19:07;;;;;;;;;;;23.70;99.90;;;;;;4899742;29;19911;-73
2021/09/19 13:21:33;;;;;;;;;;;23.80;99.90;;;;;;4900954;29;19980;-73
2021/09/19 13:23:58;;;;;;;;;;;24.00;99.90;;;;;;4916429;29;19918;-72
2021/09/19 13:26:24;;;;;;;;;;;24.00;99.90;;;;;;4915733;29;19919;-73
2021/09/19 13:28:49;;;;;;;;;;;24.00;99.90;;;;;;4912287;29;19954;-73
2021/09/19 13:31:15;;;;;;;;;;;24.20;99.90;;;;;;4901872;29;19943;-72
2021/09/19 13:33:40;;;;;;;;;;;24.30;99.90;;;;;;4915357;29;19919;-73
2021/09/19 13:36:06;;;;;;;;;;;24.40;99.90;;;;;;4914962;29;20387;-74
2021/09/19 13:38:33;;;;;;;;;;;24.40;99.90;;;;;;4901324;29;19911;-73
2021/09/19 13:40:58;;;;;;;;;;;24.60;99.90;;;;;;4915926;29;19951;-72
2021/09/19 13:43:23;;;;;;;;;;;24.50;99.60;;;;;;4900872;29;19919;-73
2021/09/19 13:45:49;;;;;;;;;;;24.40;99.90;;;;;;4891578;29;19922;-76
2021/09/19 13:48:14;;;;;;;;;;;24.30;99.70;;;;;;4908778;29;20002;-73
2021/09/19 13:50:40;;;;;;;;;;;24.40;99.70;;;;;;4900165;29;20365;-72
2021/09/19 13:53:05;;;;;;;;;;;24.40;99.90;;;;;;4897649;29;19919;-73
2021/09/19 13:55:31;;;;;;;;;;;24.40;99.90;;;;;;4898958;29;19949;-73
2021/09/19 13:57:57;;;;;;;;;;;24.40;99.90;;;;;;4900803;29;19963;-73
2021/09/19 14:00:23;;;;;;;;;;;24.40;99.90;;;;;;4900297;29;19922;-72
2021/09/19 14:02:48;;;;;;;;;;;24.50;99.70;;;;;;4901564;29;19912;-73
2021/09/19 14:05:14;;;;;;;;;;;24.40;99.90;;;;;;4915969;29;19967;-73
2021/09/19 14:07:39;;;;;;;;;;;24.40;99.80;;;;;;4915512;29;19918;-73
2021/09/19 14:10:05;;;;;;;;;;;24.30;99.90;;;;;;4899230;29;19927;-73
2021/09/19 14:12:31;;;;;;;;;;;24.10;99.90;;;;;;4915547;29;20379;-72